createdAt,value
2022-10-11T00:00:14.941Z,13.80
2022-10-11T00:05:17.396Z,13.90
2022-10-11T00:10:19.840Z,14.00
2022-10-11T00:15:22.487Z,14.00
2022-10-11T00:20:24.801Z,14.00
2022-10-11T00:25:26.588Z,14.20
2022-10-11T00:30:28.349Z,14.20
2022-10-11T00:35:30.137Z,14.10
2022-10-11T00:40:31.913Z,14.10
2022-10-11T00:45:33.637Z,14.10
2022-10-11T00:50:36.480Z,14.10
2022-10-11T00:55:49.101Z,14.10
2022-10-11T01:00:51.259Z,14.20
2022-10-11T01:05:53.525Z,14.20
2022-10-11T01:10:56.132Z,14.20
2022-10-11T01:16:24.417Z,14.30
2022-10-11T01:21:28.914Z,14.30
2022-10-11T01:26:45.588Z,14.10
2022-10-11T01:32:27.154Z,14.20
2022-10-11T01:37:46.200Z,14.30
2022-10-11T01:42:49.087Z,14.00
2022-10-11T01:48:11.572Z,14.00
2022-10-11T01:53:19.207Z,14.10
2022-10-11T01:58:51.385Z,14.10
2022-10-11T02:04:04.900Z,14.10
2022-10-11T02:09:16.115Z,14.10
2022-10-11T02:14:22.841Z,14.20
2022-10-11T02:19:29.820Z,14.10
2022-10-11T02:24:35.240Z,14.10
2022-10-11T02:29:39.885Z,14.20
2022-10-11T02:34:48.892Z,14.20
2022-10-11T02:40:17.086Z,14.20
2022-10-11T02:45:34.435Z,14.20
2022-10-11T02:50:40.235Z,14.10
2022-10-11T02:55:42.021Z,14.00
2022-10-11T03:00:44.976Z,13.90
2022-10-11T03:05:46.802Z,13.90
2022-10-11T03:10:48.558Z,13.90
2022-10-11T03:16:02.376Z,13.90
2022-10-11T03:21:09.400Z,13.80
2022-10-11T03:26:11.253Z,13.70
2022-10-11T03:31:13.041Z,13.60
2022-10-11T03:36:14.969Z,13.70
2022-10-11T03:41:16.761Z,13.70
2022-10-11T03:46:20.400Z,13.70
2022-10-11T03:51:22.176Z,13.60
2022-10-11T03:56:24.026Z,13.50
2022-10-11T04:01:25.927Z,13.50
2022-10-11T04:06:27.753Z,13.50
2022-10-11T04:11:29.488Z,13.50
2022-10-11T04:16:31.435Z,13.40
2022-10-11T04:21:33.575Z,13.40
2022-10-11T04:26:35.404Z,13.30
2022-10-11T04:31:37.167Z,13.40
2022-10-11T04:36:39.163Z,13.40
2022-10-11T04:41:40.972Z,13.30
2022-10-11T04:46:42.732Z,13.20
2022-10-11T04:51:44.584Z,13.20
2022-10-11T04:56:46.356Z,13.30
2022-10-11T05:01:48.138Z,13.20
2022-10-11T05:06:50.034Z,13.20
2022-10-11T05:11:51.774Z,13.10
2022-10-11T05:16:53.526Z,13.10
2022-10-11T05:21:55.381Z,13.00
2022-10-11T05:27:02.328Z,12.90
2022-10-11T05:32:05.260Z,12.80
2022-10-11T05:37:07.038Z,12.60
2022-10-11T05:42:10.155Z,12.50
2022-10-11T05:47:12.054Z,12.60
2022-10-11T05:52:13.843Z,12.60
2022-10-11T05:57:15.671Z,12.60
2022-10-11T06:02:17.398Z,12.50
2022-10-11T06:07:19.125Z,12.50
2022-10-11T06:12:21.654Z,12.50
2022-10-11T06:17:24.004Z,12.60
2022-10-11T06:22:26.632Z,12.50
2022-10-11T06:27:28.401Z,12.40
2022-10-11T06:32:30.242Z,12.40
2022-10-11T06:37:32.128Z,12.40
2022-10-11T06:42:33.900Z,12.60
2022-10-11T06:47:35.756Z,12.80
2022-10-11T06:52:37.582Z,13.10
2022-10-11T06:57:39.796Z,14.20
2022-10-11T07:02:41.682Z,14.70
2022-10-11T07:07:44.270Z,14.50
2022-10-11T07:12:46.002Z,14.80
2022-10-11T07:17:47.733Z,16.80
2022-10-11T07:22:49.446Z,18.60
2022-10-11T07:27:51.169Z,18.00
2022-10-11T07:32:52.917Z,17.80
2022-10-11T07:37:55.016Z,18.40
2022-10-11T07:42:58.113Z,20.40
2022-10-11T07:47:59.873Z,20.20
2022-10-11T07:53:01.674Z,17.90
2022-10-11T07:58:03.460Z,16.40
2022-10-11T08:03:09.426Z,16.10
2022-10-11T08:08:11.292Z,17.90
2022-10-11T08:13:13.311Z,19.10
2022-10-11T08:18:15.306Z,20.60
2022-10-11T08:23:18.302Z,21.10
2022-10-11T08:28:20.921Z,22.20
2022-10-11T08:33:25.589Z,21.20
2022-10-11T08:38:27.348Z,21.00
2022-10-11T08:43:44.223Z,21.60
2022-10-11T08:48:49.054Z,21.90
2022-10-11T08:54:07.773Z,22.10
2022-10-11T08:59:12.981Z,22.50
2022-10-11T09:04:16.335Z,22.80
2022-10-11T09:09:24.183Z,23.20
2022-10-11T09:14:52.375Z,22.60
2022-10-11T09:20:41.464Z,22.10
2022-10-11T09:25:55.188Z,22.40
2022-10-11T09:30:58.683Z,22.00
2022-10-11T09:36:01.794Z,21.80
2022-10-11T09:41:18.503Z,21.60
2022-10-11T09:46:24.770Z,22.00
2022-10-11T09:51:28.006Z,22.60
2022-10-11T09:56:31.615Z,22.20
2022-10-11T10:01:33.619Z,23.60
2022-10-11T10:06:35.585Z,22.80
2022-10-11T10:11:37.806Z,21.10
2022-10-11T10:16:39.622Z,20.80
2022-10-11T10:21:53.167Z,20.90
2022-10-11T10:27:14.215Z,20.70
2022-10-11T10:32:34.434Z,19.40
2022-10-11T10:37:49.687Z,19.60
2022-10-11T10:42:51.518Z,20.40
2022-10-11T10:48:02.977Z,20.40
2022-10-11T10:53:29.093Z,20.80
2022-10-11T10:58:36.615Z,20.40
2022-10-11T11:03:53.553Z,21.50
2022-10-11T11:09:05.614Z,22.00
2022-10-11T11:14:32.001Z,22.20
2022-10-11T11:19:48.959Z,21.90
2022-10-11T11:24:56.768Z,21.70
2022-10-11T11:30:08.470Z,22.20
2022-10-11T11:35:32.808Z,21.20
2022-10-11T11:40:40.640Z,21.00
2022-10-11T11:45:55.352Z,20.80
2022-10-11T11:51:06.629Z,21.20
2022-10-11T11:56:41.998Z,20.50
2022-10-11T12:01:56.066Z,20.60
2022-10-11T12:07:18.573Z,20.90
2022-10-11T12:12:34.360Z,20.90
2022-10-11T12:17:56.031Z,19.70
2022-10-11T12:23:03.912Z,20.50
2022-10-11T12:28:36.859Z,21.40
2022-10-11T12:33:38.643Z,21.90
2022-10-11T12:38:42.017Z,20.80
2022-10-11T12:43:49.692Z,20.10
2022-10-11T12:48:58.672Z,19.10
2022-10-11T12:54:37.254Z,18.90
2022-10-11T12:59:44.247Z,18.90
2022-10-11T13:04:46.102Z,19.80
2022-10-11T13:09:49.224Z,20.30
2022-10-11T13:15:04.316Z,20.00
2022-10-11T13:20:15.717Z,19.20
2022-10-11T13:25:30.134Z,18.90
2022-10-11T13:30:34.325Z,18.60
2022-10-11T13:35:38.229Z,18.60
2022-10-11T13:40:40.037Z,18.60
2022-10-11T13:45:42.262Z,18.50
2022-10-11T13:50:52.060Z,18.10
2022-10-11T13:56:00.210Z,17.90
2022-10-11T14:01:05.319Z,18.20
2022-10-11T14:06:07.755Z,18.30
2022-10-11T14:11:12.384Z,18.50
2022-10-11T14:16:20.276Z,18.50
2022-10-11T14:21:47.944Z,18.40
2022-10-11T14:26:52.785Z,18.30
2022-10-11T14:32:08.384Z,18.20
2022-10-11T14:37:13.339Z,18.00
2022-10-11T14:42:15.653Z,17.80
2022-10-11T14:47:18.381Z,17.70
2022-10-11T14:52:20.279Z,17.60
2022-10-11T14:57:22.167Z,17.50
2022-10-11T15:02:23.909Z,17.60
2022-10-11T15:07:25.683Z,17.70
2022-10-11T15:12:27.438Z,17.50
2022-10-11T15:17:29.219Z,17.40
2022-10-11T15:22:30.998Z,17.40
2022-10-11T15:27:32.757Z,17.30
2022-10-11T15:32:34.509Z,17.30
2022-10-11T15:37:37.480Z,17.30
2022-10-11T15:42:39.431Z,17.20
2022-10-11T15:47:41.424Z,17.10
2022-10-11T15:52:43.170Z,17.00
2022-10-11T15:57:44.969Z,16.90
2022-10-11T16:02:46.716Z,16.90
2022-10-11T16:07:48.652Z,16.80
2022-10-11T16:12:50.519Z,16.70
2022-10-11T16:17:52.283Z,16.50
2022-10-11T16:22:54.648Z,16.40
2022-10-11T16:27:56.416Z,16.20
2022-10-11T16:32:58.619Z,16.00
2022-10-11T16:38:01.193Z,15.70
2022-10-11T16:43:07.424Z,15.50
2022-10-11T16:48:09.781Z,15.20
2022-10-11T16:53:12.415Z,15.30
2022-10-11T16:58:14.254Z,15.10
2022-10-11T17:03:16.066Z,14.70
2022-10-11T17:08:17.804Z,14.50
2022-10-11T17:13:19.659Z,14.40
2022-10-11T17:18:21.558Z,14.40
2022-10-11T17:23:23.303Z,14.20
2022-10-11T17:28:26.239Z,14.30
2022-10-11T17:33:28.691Z,14.30
2022-10-11T17:38:30.703Z,14.30
2022-10-11T17:43:32.462Z,14.20
2022-10-11T17:48:36.717Z,14.20
2022-10-11T17:53:38.487Z,14.20
2022-10-11T17:58:41.279Z,14.10
2022-10-11T18:03:43.714Z,13.90
2022-10-11T18:08:45.469Z,13.70
2022-10-11T18:13:52.522Z,13.50
2022-10-11T18:18:54.925Z,13.40
2022-10-11T18:24:00.371Z,13.20
2022-10-11T18:29:02.391Z,13.20
2022-10-11T18:34:05.017Z,12.80
2022-10-11T18:39:08.469Z,12.60
2022-10-11T18:44:14.088Z,12.50
2022-10-11T18:49:15.904Z,12.40
2022-10-11T18:54:20.948Z,12.30
2022-10-11T18:59:23.266Z,12.30
2022-10-11T19:04:25.040Z,12.30
2022-10-11T19:09:28.267Z,12.00
2022-10-11T19:14:30.367Z,11.90
2022-10-11T19:19:35.480Z,12.00
2022-10-11T19:24:37.225Z,11.70
2022-10-11T19:29:39.090Z,11.60
2022-10-11T19:34:40.835Z,11.70
2022-10-11T19:39:42.706Z,11.70
2022-10-11T19:44:44.467Z,11.70
2022-10-11T19:49:46.183Z,11.70
2022-10-11T19:54:47.914Z,11.70
2022-10-11T19:59:49.646Z,11.70
2022-10-11T20:04:52.730Z,11.70
2022-10-11T20:09:54.874Z,11.70
2022-10-11T20:14:56.644Z,11.70
2022-10-11T20:19:58.375Z,11.70
2022-10-11T20:25:00.128Z,11.80
2022-10-11T20:30:01.997Z,11.80
2022-10-11T20:35:03.955Z,11.80
2022-10-11T20:40:06.244Z,11.70
2022-10-11T20:45:08.360Z,11.80
2022-10-11T20:50:10.103Z,11.60
2022-10-11T20:55:11.847Z,11.60
2022-10-11T21:00:14.087Z,11.60
2022-10-11T21:05:15.901Z,11.50
2022-10-11T21:10:17.643Z,11.40
2022-10-11T21:15:19.391Z,11.40
2022-10-11T21:20:21.172Z,11.30
2022-10-11T21:25:22.896Z,11.20
2022-10-11T21:30:24.823Z,11.20
2022-10-11T21:35:27.720Z,11.10
2022-10-11T21:40:29.465Z,11.00
2022-10-11T21:45:31.314Z,11.10
2022-10-11T21:50:33.576Z,11.10
2022-10-11T21:55:35.339Z,11.20
2022-10-11T22:00:37.443Z,11.20
2022-10-11T22:05:46.597Z,11.20
2022-10-11T22:10:56.897Z,11.20
2022-10-11T22:16:03.529Z,11.20
2022-10-11T22:21:15.868Z,11.10
2022-10-11T22:26:23.296Z,10.90
2022-10-11T22:31:25.057Z,10.80
2022-10-11T22:36:28.517Z,10.50
2022-10-11T22:41:30.244Z,10.40
2022-10-11T22:46:32.002Z,10.40
2022-10-11T22:51:33.790Z,10.30
2022-10-11T22:56:35.512Z,10.30
2022-10-11T23:01:37.246Z,10.30
2022-10-11T23:06:39.055Z,10.30
2022-10-11T23:11:40.816Z,10.30
2022-10-11T23:16:42.550Z,10.30
2022-10-11T23:21:44.519Z,10.20
2022-10-11T23:26:46.282Z,10.00
2022-10-11T23:31:48.040Z,9.80
2022-10-11T23:36:49.899Z,9.80
2022-10-11T23:41:51.629Z,9.70
2022-10-11T23:46:53.490Z,9.60
2022-10-11T23:51:55.228Z,9.60
2022-10-11T23:56:57.107Z,9.50
